createdAt,value
2023-05-19T00:00:37.376Z,100.00
2023-05-19T00:03:05.306Z,100.00
2023-05-19T00:05:33.837Z,100.00
2023-05-19T00:08:02.102Z,100.00
2023-05-19T00:10:32.085Z,100.00
2023-05-19T00:12:59.908Z,100.00
2023-05-19T00:15:27.761Z,100.00
2023-05-19T00:17:55.753Z,100.00
2023-05-19T00:20:23.245Z,100.00
2023-05-19T00:22:51.754Z,100.00
2023-05-19T00:25:19.440Z,100.00
2023-05-19T00:27:46.732Z,100.00
2023-05-19T00:30:14.372Z,100.00
2023-05-19T00:32:42.174Z,100.00
2023-05-19T00:35:09.950Z,100.00
2023-05-19T00:37:37.624Z,100.00
2023-05-19T00:40:06.796Z,100.00
2023-05-19T00:42:34.474Z,100.00
2023-05-19T00:45:01.846Z,100.00
2023-05-19T00:47:29.753Z,100.00
2023-05-19T00:49:57.177Z,100.00
2023-05-19T00:52:24.629Z,100.00
2023-05-19T00:54:53.125Z,100.00
2023-05-19T00:57:21.480Z,100.00
2023-05-19T00:59:49.437Z,100.00
2023-05-19T01:02:18.260Z,100.00
2023-05-19T01:04:47.277Z,100.00
2023-05-19T01:07:15.593Z,100.00
2023-05-19T01:09:43.577Z,100.00
2023-05-19T01:12:11.084Z,100.00
2023-05-19T01:14:38.705Z,100.00
2023-05-19T01:17:30.825Z,100.00
2023-05-19T01:20:05.228Z,100.00
2023-05-19T01:22:55.080Z,100.00
2023-05-19T01:26:07.380Z,100.00
2023-05-19T01:28:56.843Z,100.00
2023-05-19T01:31:25.883Z,100.00
2023-05-19T01:33:55.420Z,100.00
2023-05-19T01:36:26.208Z,100.00
2023-05-19T01:38:57.929Z,100.00
2023-05-19T01:41:28.627Z,100.00
2023-05-19T01:43:57.979Z,100.00
2023-05-19T01:46:25.692Z,100.00
2023-05-19T01:48:53.895Z,100.00
2023-05-19T01:51:21.770Z,100.00
2023-05-19T01:53:49.365Z,100.00
2023-05-19T01:56:22.679Z,100.00
2023-05-19T01:58:59.865Z,100.00
2023-05-19T02:01:33.810Z,100.00
2023-05-19T02:04:23.116Z,100.00
2023-05-19T02:07:15.976Z,100.00
2023-05-19T02:09:59.812Z,100.00
2023-05-19T02:12:35.869Z,100.00
2023-05-19T02:15:26.917Z,100.00
2023-05-19T02:17:56.265Z,100.00
2023-05-19T02:20:24.297Z,100.00
2023-05-19T02:22:52.549Z,100.00
2023-05-19T02:25:19.915Z,100.00
2023-05-19T02:27:49.324Z,100.00
2023-05-19T02:30:17.755Z,100.00
2023-05-19T02:32:48.279Z,100.00
2023-05-19T02:35:16.776Z,100.00
2023-05-19T02:37:45.156Z,100.00
2023-05-19T02:40:12.607Z,100.00
2023-05-19T02:42:39.883Z,100.00
2023-05-19T02:45:08.050Z,100.00
2023-05-19T02:47:37.303Z,100.00
2023-05-19T02:50:06.218Z,100.00
2023-05-19T02:52:33.884Z,100.00
2023-05-19T02:55:01.431Z,100.00
2023-05-19T02:57:31.960Z,100.00
2023-05-19T02:59:59.749Z,100.00
2023-05-19T03:02:27.322Z,100.00
2023-05-19T03:04:55.231Z,100.00
2023-05-19T03:07:25.457Z,100.00
2023-05-19T03:09:53.229Z,100.00
2023-05-19T03:12:26.546Z,100.00
2023-05-19T03:14:54.398Z,100.00
2023-05-19T03:17:21.897Z,100.00
2023-05-19T03:19:49.302Z,100.00
2023-05-19T03:22:18.741Z,100.00
2023-05-19T03:24:46.126Z,100.00
2023-05-19T03:27:14.262Z,100.00
2023-05-19T03:30:02.739Z,100.00
2023-05-19T03:32:37.821Z,100.00
2023-05-19T03:35:06.616Z,100.00
2023-05-19T03:37:34.602Z,100.00
2023-05-19T03:40:04.006Z,100.00
2023-05-19T03:42:32.589Z,100.00
2023-05-19T03:45:00.050Z,100.00
2023-05-19T03:47:27.464Z,100.00
2023-05-19T03:50:02.522Z,100.00
2023-05-19T03:52:33.764Z,100.00
2023-05-19T03:55:04.235Z,100.00
2023-05-19T03:57:32.444Z,100.00
2023-05-19T04:00:00.020Z,100.00
2023-05-19T04:02:28.561Z,100.00
2023-05-19T04:04:57.128Z,100.00
2023-05-19T04:07:26.422Z,100.00
2023-05-19T04:09:53.926Z,100.00
2023-05-19T04:12:24.952Z,100.00
2023-05-19T04:14:54.473Z,100.00
2023-05-19T04:17:28.060Z,100.00
2023-05-19T04:19:58.196Z,100.00
2023-05-19T04:22:26.358Z,100.00
2023-05-19T04:25:04.215Z,100.00
2023-05-19T04:27:41.283Z,100.00
2023-05-19T04:30:11.405Z,100.00
2023-05-19T04:32:41.610Z,100.00
2023-05-19T04:35:09.492Z,100.00
2023-05-19T04:37:40.755Z,100.00
2023-05-19T04:40:11.357Z,100.00
2023-05-19T04:42:46.271Z,100.00
2023-05-19T04:45:17.108Z,100.00
2023-05-19T04:47:49.103Z,100.00
2023-05-19T04:50:18.483Z,100.00
2023-05-19T04:52:52.796Z,100.00
2023-05-19T04:55:22.488Z,100.00
2023-05-19T04:57:50.290Z,100.00
2023-05-19T05:00:22.146Z,100.00
2023-05-19T05:02:53.753Z,100.00
2023-05-19T05:05:21.376Z,100.00
2023-05-19T05:07:49.691Z,100.00
2023-05-19T05:10:17.837Z,100.00
2023-05-19T05:12:47.087Z,100.00
2023-05-19T05:15:14.760Z,100.00
2023-05-19T05:17:43.861Z,100.00
2023-05-19T05:20:12.894Z,100.00
2023-05-19T05:22:41.130Z,100.00
2023-05-19T05:25:09.837Z,100.00
2023-05-19T05:27:37.730Z,100.00
2023-05-19T05:30:33.997Z,100.00
2023-05-19T05:33:04.859Z,100.00
2023-05-19T05:35:32.913Z,100.00
2023-05-19T05:38:03.594Z,100.00
2023-05-19T05:40:31.642Z,100.00
2023-05-19T05:43:08.500Z,100.00
2023-05-19T05:45:37.592Z,100.00
2023-05-19T05:48:06.104Z,100.00
2023-05-19T05:50:40.182Z,100.00
2023-05-19T05:53:47.480Z,100.00
2023-05-19T05:59:41.767Z,100.00
2023-05-19T06:02:25.495Z,100.00
2023-05-19T06:04:54.572Z,100.00
2023-05-19T06:07:29.658Z,100.00
2023-05-19T06:09:57.818Z,100.00
2023-05-19T06:12:26.873Z,100.00
2023-05-19T06:15:04.991Z,100.00
2023-05-19T06:17:36.907Z,100.00
2023-05-19T06:20:06.852Z,99.49
2023-05-19T06:22:49.470Z,98.86
2023-05-19T06:25:21.015Z,99.97
2023-05-19T06:27:50.519Z,99.31
2023-05-19T06:30:20.612Z,98.07
2023-05-19T06:32:53.985Z,96.41
2023-05-19T06:35:21.778Z,97.71
2023-05-19T06:37:57.854Z,96.96
2023-05-19T06:40:37.267Z,97.54
2023-05-19T06:43:11.963Z,100.00
2023-05-19T06:45:43.098Z,100.00
2023-05-19T06:48:16.430Z,90.53
2023-05-19T06:50:44.036Z,93.12
2023-05-19T06:53:21.452Z,95.49
2023-05-19T06:55:59.217Z,90.26
2023-05-19T06:58:28.316Z,93.12
2023-05-19T07:00:57.741Z,97.87
2023-05-19T07:03:35.655Z,91.33
2023-05-19T07:06:05.686Z,93.76
2023-05-19T07:08:40.270Z,93.72
2023-05-19T07:11:19.141Z,96.75
2023-05-19T07:13:47.803Z,91.53
2023-05-19T07:16:18.536Z,89.19
2023-05-19T07:18:52.177Z,85.86
2023-05-19T07:21:26.599Z,87.77
2023-05-19T07:24:09.958Z,86.24
2023-05-19T07:26:46.853Z,85.43
2023-05-19T07:29:19.300Z,86.18
2023-05-19T07:31:48.899Z,81.35
2023-05-19T07:34:16.316Z,79.93
2023-05-19T07:36:49.582Z,73.63
2023-05-19T07:39:17.631Z,77.28
2023-05-19T07:41:54.256Z,77.62
2023-05-19T07:44:23.900Z,84.09
2023-05-19T07:46:54.610Z,74.23
2023-05-19T07:49:22.394Z,75.91
2023-05-19T07:51:49.967Z,79.40
2023-05-19T07:54:20.286Z,76.28
2023-05-19T07:56:48.671Z,76.86
2023-05-19T07:59:16.515Z,77.59
2023-05-19T08:01:44.107Z,73.48
2023-05-19T08:04:13.264Z,75.24
2023-05-19T08:06:42.924Z,74.83
2023-05-19T08:09:10.835Z,74.69
2023-05-19T08:11:38.550Z,77.16
2023-05-19T08:14:15.225Z,77.90
2023-05-19T08:16:45.590Z,75.87
2023-05-19T08:19:21.810Z,80.83
2023-05-19T08:22:01.519Z,78.39
2023-05-19T08:24:34.250Z,79.48
2023-05-19T08:27:05.030Z,71.58
2023-05-19T08:29:34.128Z,72.92
2023-05-19T08:32:03.000Z,76.67
2023-05-19T08:34:30.511Z,74.32
2023-05-19T08:37:01.056Z,77.15
2023-05-19T08:39:39.612Z,76.89
2023-05-19T08:42:08.581Z,75.59
2023-05-19T08:44:40.342Z,73.29
2023-05-19T08:47:12.972Z,71.39
2023-05-19T08:49:47.130Z,68.75
2023-05-19T08:52:25.906Z,72.85
2023-05-19T08:55:12.196Z,74.96
2023-05-19T08:57:43.121Z,68.36
2023-05-19T09:00:12.796Z,71.44
2023-05-19T09:02:55.048Z,64.41
2023-05-19T09:05:29.287Z,64.12
2023-05-19T09:07:59.434Z,68.44
2023-05-19T09:10:28.478Z,68.69
2023-05-19T09:12:57.025Z,64.28
2023-05-19T09:15:31.236Z,67.01
2023-05-19T09:18:11.082Z,62.76
2023-05-19T09:20:44.495Z,65.00
2023-05-19T09:23:16.735Z,65.19
2023-05-19T09:25:51.435Z,65.05
2023-05-19T09:28:31.943Z,60.29
2023-05-19T09:31:11.240Z,61.05
2023-05-19T09:33:46.289Z,61.99
2023-05-19T09:36:14.134Z,60.23
2023-05-19T09:38:42.039Z,59.23
2023-05-19T09:41:09.918Z,56.40
2023-05-19T09:43:37.364Z,55.83
2023-05-19T09:46:09.192Z,57.71
2023-05-19T09:48:38.197Z,56.11
2023-05-19T09:51:08.248Z,63.44
2023-05-19T09:53:35.936Z,58.42
2023-05-19T09:56:03.907Z,56.41
2023-05-19T09:58:37.130Z,58.54
2023-05-19T10:01:05.487Z,58.87
2023-05-19T10:03:34.483Z,51.45
2023-05-19T10:06:02.184Z,57.64
2023-05-19T10:08:31.042Z,59.01
2023-05-19T10:10:59.482Z,58.38
2023-05-19T10:13:29.441Z,57.95
2023-05-19T10:15:59.758Z,54.81
2023-05-19T10:18:30.022Z,56.86
2023-05-19T10:20:58.348Z,56.74
2023-05-19T10:23:26.666Z,56.11
2023-05-19T10:26:07.280Z,56.68
2023-05-19T10:28:38.457Z,57.77
2023-05-19T10:31:20.724Z,53.57
2023-05-19T10:34:08.397Z,54.47
2023-05-19T10:36:45.215Z,50.09
2023-05-19T10:39:32.852Z,47.25
2023-05-19T10:42:17.598Z,49.51
2023-05-19T10:45:13.694Z,50.03
2023-05-19T10:47:42.703Z,48.91
2023-05-19T10:50:18.127Z,52.24
2023-05-19T10:53:05.612Z,54.30
2023-05-19T10:55:52.776Z,57.20
2023-05-19T10:58:40.520Z,60.49
2023-05-19T11:01:19.963Z,61.98
2023-05-19T11:03:53.574Z,63.51
2023-05-19T11:06:32.704Z,59.12
2023-05-19T11:09:28.365Z,59.17
2023-05-19T11:12:04.106Z,62.79
2023-05-19T11:14:33.212Z,61.55
2023-05-19T11:17:01.139Z,63.54
2023-05-19T11:19:30.675Z,60.76
2023-05-19T11:22:09.213Z,62.50
2023-05-19T11:24:44.856Z,62.58
2023-05-19T11:27:27.718Z,62.25
2023-05-19T11:29:57.439Z,59.25
2023-05-19T11:32:31.417Z,66.08
2023-05-19T11:34:59.305Z,64.50
2023-05-19T11:37:29.122Z,63.90
2023-05-19T11:39:56.597Z,73.94
2023-05-19T11:42:24.117Z,79.23
2023-05-19T11:44:55.990Z,86.10
2023-05-19T11:47:23.569Z,88.76
2023-05-19T11:49:57.811Z,94.17
2023-05-19T11:52:26.206Z,97.57
2023-05-19T11:54:53.881Z,98.39
2023-05-19T11:57:21.534Z,100.00
2023-05-19T11:59:50.021Z,100.00
2023-05-19T12:02:28.079Z,100.00
2023-05-19T12:04:55.976Z,100.00
2023-05-19T12:07:24.225Z,100.00
2023-05-19T12:09:52.674Z,100.00
2023-05-19T12:12:21.635Z,99.86
2023-05-19T12:14:53.336Z,97.68
2023-05-19T12:17:21.683Z,94.73
2023-05-19T12:19:49.709Z,100.00
2023-05-19T12:22:18.243Z,100.00
2023-05-19T12:24:47.383Z,100.00
2023-05-19T12:27:20.317Z,100.00
2023-05-19T12:29:54.539Z,100.00
2023-05-19T12:32:26.473Z,100.00
2023-05-19T12:34:56.422Z,100.00
2023-05-19T12:37:27.925Z,100.00
2023-05-19T12:39:56.638Z,99.54
2023-05-19T12:42:24.514Z,99.39
2023-05-19T12:44:52.750Z,100.00
2023-05-19T12:47:21.293Z,100.00
2023-05-19T12:50:18.300Z,90.97
2023-05-19T12:52:53.547Z,90.72
2023-05-19T12:55:22.370Z,95.15
2023-05-19T12:57:54.816Z,90.49
2023-05-19T13:00:25.772Z,93.32
2023-05-19T13:03:05.554Z,85.75
2023-05-19T13:05:38.291Z,85.40
2023-05-19T13:08:08.469Z,87.90
2023-05-19T13:10:38.290Z,79.38
2023-05-19T13:13:07.611Z,80.03
2023-05-19T13:15:38.331Z,79.32
2023-05-19T13:18:09.095Z,79.79
2023-05-19T13:20:38.195Z,80.12
2023-05-19T13:23:06.070Z,76.45
2023-05-19T13:25:34.644Z,78.75
2023-05-19T13:28:05.856Z,78.44
2023-05-19T13:30:38.786Z,80.30
2023-05-19T13:33:06.680Z,76.91
2023-05-19T13:35:37.815Z,75.33
2023-05-19T13:38:06.997Z,77.25
2023-05-19T13:40:35.338Z,76.31
2023-05-19T13:43:04.237Z,78.81
2023-05-19T13:45:31.674Z,78.08
2023-05-19T13:47:59.666Z,80.10
2023-05-19T13:50:27.153Z,75.38
2023-05-19T13:52:54.654Z,74.89
2023-05-19T13:55:23.496Z,70.52
2023-05-19T13:57:51.088Z,70.17
2023-05-19T14:00:19.516Z,69.60
2023-05-19T14:02:47.503Z,71.97
2023-05-19T14:05:15.012Z,68.86
2023-05-19T14:07:42.650Z,70.28
2023-05-19T14:10:10.649Z,69.18
2023-05-19T14:12:55.143Z,64.59
2023-05-19T14:15:27.267Z,64.11
2023-05-19T14:17:54.708Z,62.59
2023-05-19T14:20:22.199Z,59.42
2023-05-19T14:22:50.081Z,58.36
2023-05-19T14:25:17.432Z,57.33
2023-05-19T14:27:44.809Z,55.46
2023-05-19T14:30:12.904Z,58.48
2023-05-19T14:32:40.678Z,56.00
2023-05-19T14:35:08.454Z,58.82
2023-05-19T14:37:36.325Z,69.88
2023-05-19T14:40:04.753Z,74.91
2023-05-19T14:42:32.199Z,69.53
2023-05-19T14:45:00.041Z,68.63
2023-05-19T14:47:27.597Z,62.48
2023-05-19T14:49:55.007Z,61.89
2023-05-19T14:52:23.279Z,58.89
2023-05-19T14:54:50.698Z,64.66
2023-05-19T14:57:18.338Z,66.06
2023-05-19T14:59:46.029Z,67.74
2023-05-19T15:02:13.363Z,66.92
2023-05-19T15:04:40.693Z,71.70
2023-05-19T15:07:10.504Z,75.18
2023-05-19T15:09:38.376Z,72.58
2023-05-19T15:12:05.964Z,75.98
2023-05-19T15:14:33.657Z,69.37
2023-05-19T15:17:01.056Z,74.02
2023-05-19T15:19:28.505Z,72.54
2023-05-19T15:21:56.294Z,72.85
2023-05-19T15:24:24.506Z,63.92
2023-05-19T15:26:52.298Z,67.15
2023-05-19T15:29:19.999Z,59.20
2023-05-19T15:31:52.216Z,53.98
2023-05-19T15:34:21.039Z,50.33
2023-05-19T15:36:48.597Z,51.93
2023-05-19T15:39:16.133Z,54.24
2023-05-19T15:41:43.888Z,58.54
2023-05-19T15:44:11.270Z,60.62
2023-05-19T15:46:38.747Z,62.69
2023-05-19T15:49:06.563Z,63.73
2023-05-19T15:51:34.345Z,66.62
2023-05-19T15:54:01.741Z,69.27
2023-05-19T15:56:29.363Z,73.48
2023-05-19T15:58:56.811Z,70.61
2023-05-19T16:01:24.295Z,64.94
2023-05-19T16:03:52.217Z,62.81
2023-05-19T16:06:19.864Z,57.72
2023-05-19T16:08:47.452Z,53.52
2023-05-19T16:11:15.350Z,53.89
2023-05-19T16:13:42.706Z,52.52
2023-05-19T16:16:10.199Z,49.36
2023-05-19T16:18:37.980Z,49.53
2023-05-19T16:21:08.626Z,49.13
2023-05-19T16:23:39.039Z,52.00
2023-05-19T16:26:12.313Z,54.66
2023-05-19T16:28:39.852Z,61.13
2023-05-19T16:31:08.208Z,65.59
2023-05-19T16:33:36.002Z,67.55
2023-05-19T16:36:07.616Z,67.31
2023-05-19T16:38:35.282Z,68.77
2023-05-19T16:41:04.556Z,69.29
2023-05-19T16:43:34.042Z,70.88
2023-05-19T16:46:03.662Z,75.10
2023-05-19T16:48:31.625Z,75.11
2023-05-19T16:50:59.563Z,74.89
2023-05-19T16:53:27.548Z,76.40
2023-05-19T16:55:55.103Z,77.13
2023-05-19T16:58:22.499Z,81.37
2023-05-19T17:00:52.361Z,80.93
2023-05-19T17:03:20.848Z,84.00
2023-05-19T17:05:48.749Z,83.13
2023-05-19T17:08:33.974Z,79.58
2023-05-19T17:11:01.313Z,81.77
2023-05-19T17:13:33.755Z,83.76
2023-05-19T17:16:03.735Z,84.43
2023-05-19T17:18:32.188Z,86.06
2023-05-19T17:21:04.110Z,85.23
2023-05-19T17:23:34.570Z,86.79
2023-05-19T17:26:02.137Z,89.58
2023-05-19T17:28:29.695Z,88.50
2023-05-19T17:30:57.670Z,88.12
2023-05-19T17:33:25.209Z,89.71
2023-05-19T17:35:58.281Z,92.89
2023-05-19T17:38:29.998Z,93.57
2023-05-19T17:41:11.667Z,93.06
2023-05-19T17:43:43.076Z,93.83
2023-05-19T17:46:11.844Z,92.57
2023-05-19T17:48:40.301Z,93.81
2023-05-19T17:51:09.703Z,92.81
2023-05-19T17:53:37.629Z,92.17
2023-05-19T17:56:09.003Z,95.21
2023-05-19T17:58:36.996Z,96.29
2023-05-19T18:01:07.684Z,96.04
2023-05-19T18:03:37.344Z,95.51
2023-05-19T18:06:10.366Z,97.78
2023-05-19T18:08:42.654Z,99.32
2023-05-19T18:11:15.882Z,100.00
2023-05-19T18:13:44.470Z,100.00
2023-05-19T18:16:21.877Z,100.00
2023-05-19T18:18:50.700Z,100.00
2023-05-19T18:21:20.063Z,97.79
2023-05-19T18:23:50.343Z,94.76
2023-05-19T18:26:18.161Z,92.73
2023-05-19T18:28:45.714Z,95.56
2023-05-19T18:31:19.359Z,100.00
2023-05-19T18:33:47.643Z,100.00
2023-05-19T18:36:20.686Z,99.21
2023-05-19T18:38:49.899Z,98.62
2023-05-19T18:41:17.378Z,97.05
2023-05-19T18:43:44.873Z,94.91
2023-05-19T18:46:13.663Z,93.61
2023-05-19T18:48:41.274Z,91.65
2023-05-19T18:51:09.554Z,92.87
2023-05-19T18:53:37.623Z,91.30
2023-05-19T18:56:05.242Z,90.58
2023-05-19T18:58:32.770Z,92.13
2023-05-19T19:01:00.592Z,93.67
2023-05-19T19:03:28.794Z,97.52
2023-05-19T19:05:57.363Z,99.32
2023-05-19T19:08:25.437Z,99.58
2023-05-19T19:10:53.754Z,96.97
2023-05-19T19:13:21.391Z,95.02
2023-05-19T19:15:49.072Z,94.52
2023-05-19T19:18:16.510Z,94.03
2023-05-19T19:20:43.911Z,94.84
2023-05-19T19:23:11.643Z,95.40
2023-05-19T19:25:39.030Z,95.45
2023-05-19T19:28:06.662Z,96.31
2023-05-19T19:30:34.765Z,95.54
2023-05-19T19:33:03.095Z,94.12
2023-05-19T19:35:32.072Z,93.79
2023-05-19T19:38:00.066Z,93.77
2023-05-19T19:40:27.590Z,96.45
2023-05-19T19:42:55.206Z,97.20
2023-05-19T19:45:23.030Z,99.07
2023-05-19T19:47:50.438Z,99.79
2023-05-19T19:50:18.022Z,97.97
2023-05-19T19:52:45.838Z,97.19
2023-05-19T19:55:13.383Z,97.62
2023-05-19T19:57:40.839Z,98.39
2023-05-19T20:00:09.368Z,95.90
2023-05-19T20:02:45.486Z,97.31
2023-05-19T20:05:23.102Z,97.73
2023-05-19T20:07:52.566Z,98.31
2023-05-19T20:10:21.072Z,97.69
2023-05-19T20:12:50.742Z,97.53
2023-05-19T20:15:18.874Z,96.42
2023-05-19T20:17:46.384Z,96.51
2023-05-19T20:20:14.232Z,98.27
2023-05-19T20:22:42.005Z,99.23
2023-05-19T20:25:09.984Z,99.28
2023-05-19T20:27:37.866Z,99.80
2023-05-19T20:30:06.312Z,99.36
2023-05-19T20:32:33.744Z,98.39
2023-05-19T20:35:01.666Z,97.59
2023-05-19T20:37:29.359Z,97.59
2023-05-19T20:39:56.678Z,98.44
2023-05-19T20:42:24.109Z,99.08
2023-05-19T20:44:52.304Z,98.30
2023-05-19T20:47:20.005Z,98.54
2023-05-19T20:49:48.441Z,98.21
2023-05-19T20:52:17.072Z,98.22
2023-05-19T20:54:46.525Z,98.86
2023-05-19T20:57:13.975Z,97.93
2023-05-19T20:59:41.748Z,97.96
2023-05-19T21:02:09.796Z,98.41
2023-05-19T21:04:38.178Z,97.08
2023-05-19T21:07:08.975Z,97.42
2023-05-19T21:09:36.523Z,97.71
2023-05-19T21:12:04.063Z,96.66
2023-05-19T21:14:31.755Z,97.04
2023-05-19T21:16:59.599Z,96.76
2023-05-19T21:19:27.022Z,97.82
2023-05-19T21:21:54.751Z,99.60
2023-05-19T21:24:22.189Z,99.91
2023-05-19T21:26:49.952Z,99.56
2023-05-19T21:29:17.650Z,98.03
2023-05-19T21:31:45.070Z,97.30
2023-05-19T21:34:12.460Z,97.80
2023-05-19T21:36:40.277Z,97.91
2023-05-19T21:39:07.698Z,98.12
2023-05-19T21:41:35.761Z,99.37
2023-05-19T21:44:03.775Z,97.92
2023-05-19T21:46:31.324Z,98.57
2023-05-19T21:48:58.831Z,99.68
2023-05-19T21:51:26.557Z,99.65
2023-05-19T21:53:53.963Z,99.37
2023-05-19T21:56:22.812Z,98.36
2023-05-19T21:58:50.461Z,98.05
2023-05-19T22:01:18.227Z,97.86
2023-05-19T22:03:46.002Z,96.58
2023-05-19T22:06:13.420Z,96.88
2023-05-19T22:08:40.995Z,96.61
2023-05-19T22:11:09.236Z,96.10
2023-05-19T22:13:41.292Z,96.88
2023-05-19T22:16:09.603Z,98.34
2023-05-19T22:18:37.054Z,98.33
2023-05-19T22:21:04.807Z,97.30
2023-05-19T22:23:32.480Z,97.17
2023-05-19T22:25:59.872Z,97.49
2023-05-19T22:28:27.322Z,96.33
2023-05-19T22:30:54.985Z,96.15
2023-05-19T22:33:22.308Z,95.40
2023-05-19T22:35:49.507Z,96.46
2023-05-19T22:38:17.151Z,99.41
2023-05-19T22:40:44.732Z,99.18
2023-05-19T22:43:12.051Z,99.05
2023-05-19T22:45:39.812Z,98.58
2023-05-19T22:48:07.398Z,98.41
2023-05-19T22:50:34.816Z,97.53
2023-05-19T22:53:02.560Z,98.29
2023-05-19T22:55:29.822Z,100.00
2023-05-19T22:57:57.269Z,99.96
2023-05-19T23:00:24.909Z,100.00
2023-05-19T23:02:52.416Z,100.00
2023-05-19T23:05:19.831Z,100.00
2023-05-19T23:07:47.503Z,100.00
2023-05-19T23:10:14.847Z,100.00
2023-05-19T23:12:42.669Z,100.00
2023-05-19T23:15:11.440Z,100.00
2023-05-19T23:17:38.928Z,100.00
2023-05-19T23:20:06.850Z,100.00
2023-05-19T23:22:34.522Z,100.00
2023-05-19T23:25:05.833Z,100.00
2023-05-19T23:27:34.773Z,100.00
2023-05-19T23:30:03.518Z,100.00
2023-05-19T23:32:31.394Z,100.00
2023-05-19T23:35:08.674Z,100.00
2023-05-19T23:37:36.332Z,100.00
2023-05-19T23:40:03.938Z,100.00
2023-05-19T23:42:31.399Z,100.00
2023-05-19T23:44:59.089Z,100.00
2023-05-19T23:47:26.980Z,100.00
2023-05-19T23:49:54.342Z,100.00
2023-05-19T23:52:22.002Z,100.00
2023-05-19T23:54:49.559Z,100.00
2023-05-19T23:57:17.253Z,100.00
2023-05-19T23:59:45.023Z,100.00
